createdAt,value
2017-07-25T00:02:12.816Z,15.87
2017-07-25T00:04:41.725Z,14.57
2017-07-25T00:07:10.610Z,15.90
2017-07-25T00:09:39.500Z,12.77
2017-07-25T00:12:08.391Z,13.83
2017-07-25T00:14:37.299Z,15.30
2017-07-25T00:17:06.194Z,17.90
2017-07-25T00:19:35.101Z,16.40
2017-07-25T00:22:03.997Z,16.50
2017-07-25T00:24:32.902Z,17.40
2017-07-25T00:27:01.816Z,18.90
2017-07-25T00:29:30.791Z,17.00
2017-07-25T00:31:59.681Z,13.97
2017-07-25T00:34:28.594Z,16.30
2017-07-25T00:36:57.481Z,14.60
2017-07-25T00:39:26.394Z,16.60
2017-07-25T00:41:55.293Z,14.87
2017-07-25T00:44:24.193Z,13.10
2017-07-25T00:46:53.118Z,13.27
2017-07-25T00:49:22.011Z,12.57
2017-07-25T00:51:50.931Z,13.00
2017-07-25T00:54:19.823Z,12.53
2017-07-25T00:56:48.723Z,12.37
2017-07-25T00:59:17.606Z,14.80
2017-07-25T01:01:46.530Z,12.93
2017-07-25T01:04:15.414Z,10.90
2017-07-25T01:06:44.340Z,12.57
2017-07-25T01:09:13.238Z,10.70
2017-07-25T01:11:42.132Z,11.77
2017-07-25T01:14:11.124Z,10.47
2017-07-25T01:16:40.017Z,11.00
2017-07-25T01:19:08.901Z,10.63
2017-07-25T01:21:37.802Z,12.17
2017-07-25T01:24:06.692Z,13.00
2017-07-25T01:26:35.582Z,13.00
2017-07-25T01:29:04.492Z,11.47
2017-07-25T01:31:33.370Z,11.70
2017-07-25T01:34:02.292Z,12.13
2017-07-25T01:36:31.177Z,10.50
2017-07-25T01:39:00.078Z,10.33
2017-07-25T01:41:28.966Z,10.97
2017-07-25T01:43:57.881Z,9.90
2017-07-25T01:46:26.755Z,10.93
2017-07-25T01:48:55.665Z,11.33
2017-07-25T01:51:24.558Z,9.80
2017-07-25T01:53:53.463Z,10.37
2017-07-25T01:56:22.355Z,11.17
2017-07-25T01:58:51.241Z,11.60
2017-07-25T02:01:20.124Z,10.83
2017-07-25T02:03:49.010Z,9.73
2017-07-25T02:06:17.882Z,12.43
2017-07-25T02:08:46.800Z,12.43
2017-07-25T02:11:15.694Z,11.20
2017-07-25T02:13:44.587Z,10.70
2017-07-25T02:16:13.476Z,10.40
2017-07-25T02:18:42.399Z,11.20
2017-07-25T02:21:11.290Z,11.43
2017-07-25T02:23:40.192Z,12.23
2017-07-25T02:26:09.075Z,12.63
2017-07-25T02:28:37.966Z,10.97
2017-07-25T02:31:06.857Z,11.80
2017-07-25T02:33:35.747Z,9.87
2017-07-25T02:36:04.636Z,11.13
2017-07-25T02:38:33.527Z,12.37
2017-07-25T02:41:02.432Z,9.10
2017-07-25T02:43:31.333Z,11.37
2017-07-25T02:46:00.235Z,8.73
2017-07-25T02:48:29.127Z,9.23
2017-07-25T02:50:58.032Z,9.97
2017-07-25T02:53:26.911Z,8.37
2017-07-25T02:55:55.807Z,9.20
2017-07-25T02:58:24.699Z,7.80
2017-07-25T03:00:53.587Z,7.87
2017-07-25T03:03:22.477Z,8.20
2017-07-25T03:05:51.378Z,9.40
2017-07-25T03:08:20.244Z,7.30
2017-07-25T03:10:49.124Z,7.57
2017-07-25T03:13:18.013Z,6.90
2017-07-25T03:15:46.896Z,9.20
2017-07-25T03:18:15.787Z,7.63
2017-07-25T03:20:44.655Z,8.50
2017-07-25T03:23:19.327Z,7.50
2017-07-25T03:25:48.207Z,9.10
2017-07-25T03:28:17.089Z,8.50
2017-07-25T03:30:45.962Z,8.73
2017-07-25T03:33:14.875Z,7.50
2017-07-25T03:35:43.752Z,8.27
2017-07-25T03:38:12.655Z,8.53
2017-07-25T03:40:41.527Z,8.90
2017-07-25T03:43:10.431Z,8.20
2017-07-25T03:45:39.323Z,9.07
2017-07-25T03:48:08.217Z,10.00
2017-07-25T03:50:37.080Z,9.23
2017-07-25T03:53:05.949Z,8.70
2017-07-25T03:55:34.855Z,9.40
2017-07-25T03:58:03.721Z,9.37
2017-07-25T04:00:32.627Z,8.90
2017-07-25T04:03:01.500Z,9.30
2017-07-25T04:05:30.391Z,9.10
2017-07-25T04:07:59.280Z,8.03
2017-07-25T04:10:28.189Z,8.37
2017-07-25T04:12:57.076Z,8.30
2017-07-25T04:15:25.963Z,8.50
2017-07-25T04:17:54.845Z,9.37
2017-07-25T04:20:23.735Z,8.30
2017-07-25T04:22:52.627Z,7.90
2017-07-25T04:25:21.523Z,8.97
2017-07-25T04:27:50.422Z,9.67
2017-07-25T04:30:19.329Z,9.03
2017-07-25T04:32:48.201Z,8.87
2017-07-25T04:35:17.088Z,8.90
2017-07-25T04:37:46.000Z,8.27
2017-07-25T04:40:14.869Z,8.60
2017-07-25T04:42:43.764Z,8.00
2017-07-25T04:45:12.648Z,7.60
2017-07-25T04:47:41.563Z,8.33
2017-07-25T04:50:10.435Z,8.50
2017-07-25T04:52:39.342Z,7.90
2017-07-25T04:55:08.276Z,8.23
2017-07-25T04:57:37.191Z,8.10
2017-07-25T05:00:06.101Z,9.30
2017-07-25T05:02:35.017Z,11.03
2017-07-25T05:05:03.891Z,8.97
2017-07-25T05:07:32.791Z,8.00
2017-07-25T05:10:01.669Z,8.67
2017-07-25T05:12:30.582Z,9.80
2017-07-25T05:14:59.452Z,8.30
2017-07-25T05:17:28.345Z,8.00
2017-07-25T05:19:57.235Z,8.00
2017-07-25T05:22:26.458Z,8.13
2017-07-25T05:24:55.351Z,7.70
2017-07-25T05:27:24.223Z,8.57
2017-07-25T05:29:53.139Z,9.33
2017-07-25T05:32:22.025Z,9.00
2017-07-25T05:34:50.959Z,8.70
2017-07-25T05:37:19.856Z,8.50
2017-07-25T05:39:48.779Z,9.47
2017-07-25T05:42:17.666Z,8.63
2017-07-25T05:44:46.572Z,8.63
2017-07-25T05:47:15.443Z,8.17
2017-07-25T05:49:44.347Z,8.50
2017-07-25T05:52:13.238Z,7.17
2017-07-25T05:54:42.135Z,8.20
2017-07-25T05:57:11.023Z,8.37
2017-07-25T05:59:39.902Z,8.43
2017-07-25T06:02:08.805Z,7.90
2017-07-25T06:04:37.683Z,8.50
2017-07-25T06:07:06.579Z,7.80
2017-07-25T06:09:35.470Z,8.40
2017-07-25T06:12:04.368Z,7.00
2017-07-25T06:14:33.253Z,9.03
2017-07-25T06:17:02.142Z,8.33
2017-07-25T06:19:31.035Z,8.53
2017-07-25T06:21:59.925Z,8.63
2017-07-25T06:24:28.785Z,7.83
2017-07-25T06:26:57.696Z,9.30
2017-07-25T06:29:26.600Z,10.20
2017-07-25T06:31:55.502Z,9.73
2017-07-25T06:34:24.394Z,9.43
2017-07-25T06:36:53.311Z,10.70
2017-07-25T06:39:22.209Z,10.13
2017-07-25T06:41:51.128Z,11.13
2017-07-25T06:44:20.022Z,9.93
2017-07-25T06:46:48.912Z,10.80
2017-07-25T06:49:17.810Z,11.10
2017-07-25T06:51:46.726Z,12.27
2017-07-25T06:54:15.633Z,10.57
2017-07-25T06:56:44.505Z,8.13
2017-07-25T06:59:13.397Z,8.50
2017-07-25T07:01:42.288Z,10.30
2017-07-25T07:04:11.176Z,9.10
2017-07-25T07:06:40.079Z,8.53
2017-07-25T07:09:08.959Z,7.07
2017-07-25T07:11:37.854Z,6.87
2017-07-25T07:14:06.775Z,6.10
2017-07-25T07:16:35.843Z,6.40
2017-07-25T07:19:04.763Z,7.00
2017-07-25T07:21:33.629Z,6.23
2017-07-25T07:24:02.513Z,6.23
2017-07-25T07:26:31.413Z,6.97
2017-07-25T07:29:00.300Z,6.93
2017-07-25T07:31:29.193Z,5.83
2017-07-25T07:33:58.082Z,6.20
2017-07-25T07:36:27.002Z,6.70
2017-07-25T07:38:55.888Z,6.23
2017-07-25T07:41:24.782Z,6.20
2017-07-25T07:43:53.653Z,4.70
2017-07-25T07:46:22.538Z,5.60
2017-07-25T07:48:51.408Z,5.60
2017-07-25T07:51:20.319Z,5.40
2017-07-25T07:53:49.215Z,5.17
2017-07-25T07:56:18.130Z,5.03
2017-07-25T07:58:47.032Z,5.93
2017-07-25T08:01:15.987Z,5.20
2017-07-25T08:03:44.881Z,4.73
2017-07-25T08:06:13.788Z,5.20
2017-07-25T08:08:42.665Z,4.80
2017-07-25T08:11:11.562Z,4.57
2017-07-25T08:13:40.445Z,5.00
2017-07-25T08:16:09.352Z,4.70
2017-07-25T08:18:38.225Z,6.20
2017-07-25T08:21:07.134Z,4.50
2017-07-25T08:23:36.035Z,4.80
2017-07-25T08:26:04.917Z,5.03
2017-07-25T08:28:33.829Z,4.50
2017-07-25T08:31:02.726Z,4.73
2017-07-25T08:33:31.643Z,4.20
2017-07-25T08:36:00.576Z,4.70
2017-07-25T08:38:29.470Z,4.10
2017-07-25T08:40:58.352Z,4.20
2017-07-25T08:43:27.280Z,4.57
2017-07-25T08:45:56.169Z,4.50
2017-07-25T08:48:25.066Z,4.33
2017-07-25T08:50:53.954Z,4.90
2017-07-25T08:53:22.875Z,4.50
2017-07-25T08:55:51.750Z,4.30
2017-07-25T08:58:20.655Z,4.43
2017-07-25T09:00:49.546Z,4.57
2017-07-25T09:03:18.451Z,4.50
2017-07-25T09:05:47.334Z,4.00
2017-07-25T09:08:16.248Z,4.33
2017-07-25T09:10:45.115Z,3.90
2017-07-25T09:13:14.008Z,3.93
2017-07-25T09:15:42.902Z,4.77
2017-07-25T09:18:11.791Z,4.33
2017-07-25T09:20:40.679Z,3.57
2017-07-25T09:23:10.107Z,4.50
2017-07-25T09:25:39.097Z,4.83
2017-07-25T09:28:08.016Z,4.87
2017-07-25T09:30:36.922Z,5.47
2017-07-25T09:33:05.789Z,5.10
2017-07-25T09:35:34.691Z,4.90
2017-07-25T09:38:03.580Z,5.03
2017-07-25T09:40:32.476Z,4.60
2017-07-25T09:43:01.365Z,3.90
2017-07-25T09:45:30.288Z,3.60
2017-07-25T09:47:59.167Z,3.70
2017-07-25T09:50:28.079Z,4.00
2017-07-25T09:55:43.990Z,4.40
2017-07-25T09:58:12.885Z,3.30
2017-07-25T10:00:41.772Z,3.03
2017-07-25T10:03:10.761Z,3.10
2017-07-25T10:05:39.635Z,3.97
2017-07-25T10:08:08.560Z,4.13
2017-07-25T10:10:37.446Z,4.70
2017-07-25T10:13:06.355Z,3.80
2017-07-25T10:15:35.240Z,3.57
2017-07-25T10:18:04.146Z,3.40
2017-07-25T10:20:33.017Z,3.57
2017-07-25T10:23:01.918Z,4.60
2017-07-25T10:25:30.807Z,3.60
2017-07-25T10:27:59.796Z,4.83
2017-07-25T10:30:28.690Z,3.10
2017-07-25T10:32:57.588Z,3.20
2017-07-25T10:35:26.480Z,3.47
2017-07-25T10:37:55.393Z,3.43
2017-07-25T10:40:24.269Z,3.50
2017-07-25T10:42:53.144Z,3.10
2017-07-25T10:45:22.035Z,3.03
2017-07-25T10:47:50.921Z,3.50
2017-07-25T10:50:19.817Z,3.87
2017-07-25T10:52:48.702Z,3.30
2017-07-25T10:55:17.593Z,3.20
2017-07-25T10:57:46.488Z,3.40
2017-07-25T11:00:15.395Z,3.20
2017-07-25T11:02:53.589Z,3.53
2017-07-25T11:05:22.575Z,3.27
2017-07-25T11:07:51.467Z,3.97
2017-07-25T11:10:20.362Z,3.20
2017-07-25T11:12:49.257Z,3.90
2017-07-25T11:15:18.156Z,4.87
2017-07-25T11:17:47.133Z,2.57
2017-07-25T11:20:16.031Z,3.23
2017-07-25T11:22:44.932Z,3.07
2017-07-25T11:25:13.810Z,3.90
2017-07-25T11:27:42.702Z,3.03
2017-07-25T11:30:11.575Z,2.70
2017-07-25T11:32:40.470Z,2.90
2017-07-25T11:35:09.357Z,3.07
2017-07-25T11:37:38.275Z,2.50
2017-07-25T11:40:07.230Z,2.80
2017-07-25T11:42:36.127Z,2.63
2017-07-25T11:45:05.007Z,2.50
2017-07-25T11:47:33.929Z,3.20
2017-07-25T11:50:02.833Z,4.30
2017-07-25T11:52:31.726Z,3.80
2017-07-25T11:55:00.646Z,5.67
2017-07-25T11:57:29.537Z,2.67
2017-07-25T11:59:58.522Z,2.97
2017-07-25T12:02:27.419Z,3.07
2017-07-25T12:04:56.315Z,3.13
2017-07-25T12:07:25.205Z,3.13
2017-07-25T12:09:54.102Z,2.70
2017-07-25T12:12:23.006Z,3.13
2017-07-25T12:14:51.998Z,2.87
2017-07-25T12:17:20.874Z,3.10
2017-07-25T12:19:49.776Z,3.23
2017-07-25T12:22:18.674Z,3.27
2017-07-25T12:24:47.555Z,3.00
2017-07-25T12:27:17.331Z,3.10
2017-07-25T12:29:46.218Z,2.60
2017-07-25T12:32:15.140Z,2.50
2017-07-25T12:34:44.009Z,2.60
2017-07-25T12:37:12.907Z,3.63
2017-07-25T12:39:41.786Z,3.17
2017-07-25T12:42:10.686Z,3.27
2017-07-25T12:44:39.566Z,3.60
2017-07-25T12:47:08.454Z,3.60
2017-07-25T12:49:37.333Z,3.23
2017-07-25T12:52:06.222Z,2.93
2017-07-25T12:54:35.142Z,3.07
2017-07-25T12:57:04.043Z,2.83
2017-07-25T12:59:32.934Z,3.00
2017-07-25T13:02:07.644Z,3.37
2017-07-25T13:04:36.564Z,4.27
2017-07-25T13:07:05.470Z,2.67
2017-07-25T13:09:34.398Z,3.00
2017-07-25T13:12:03.335Z,2.70
2017-07-25T13:14:32.242Z,3.03
2017-07-25T13:17:01.121Z,2.67
2017-07-25T13:19:30.062Z,3.30
2017-07-25T13:21:58.966Z,3.40
2017-07-25T13:24:27.865Z,3.50
2017-07-25T13:26:56.767Z,2.97
2017-07-25T13:29:25.651Z,3.57
2017-07-25T13:31:54.552Z,3.53
2017-07-25T13:34:23.436Z,2.77
2017-07-25T13:36:52.355Z,3.73
2017-07-25T13:39:21.246Z,3.50
2017-07-25T13:41:50.129Z,2.90
2017-07-25T13:44:19.032Z,2.83
2017-07-25T13:46:47.920Z,3.53
2017-07-25T13:49:16.830Z,3.20
2017-07-25T13:51:45.719Z,3.50
2017-07-25T13:54:14.602Z,3.03
2017-07-25T13:56:43.490Z,3.10
2017-07-25T13:59:12.388Z,2.97
2017-07-25T14:01:41.269Z,3.60
2017-07-25T14:04:10.151Z,2.53
2017-07-25T14:06:39.055Z,4.33
2017-07-25T14:09:07.935Z,2.70
2017-07-25T14:11:36.838Z,4.40
2017-07-25T14:14:05.740Z,4.10
2017-07-25T14:16:34.632Z,4.60
2017-07-25T14:19:03.543Z,4.90
2017-07-25T14:21:32.449Z,3.83
2017-07-25T14:24:01.326Z,6.40
2017-07-25T14:26:30.238Z,4.20
2017-07-25T14:28:59.157Z,5.00
2017-07-25T14:31:28.038Z,4.20
2017-07-25T14:33:56.939Z,4.07
2017-07-25T14:36:25.818Z,2.70
2017-07-25T14:38:54.743Z,3.10
2017-07-25T14:41:23.621Z,3.57
2017-07-25T14:43:52.527Z,3.50
2017-07-25T14:46:21.419Z,4.37
2017-07-25T14:48:50.312Z,4.20
2017-07-25T14:51:19.213Z,3.50
2017-07-25T14:53:48.138Z,3.23
2017-07-25T14:56:17.036Z,4.10
2017-07-25T14:58:45.920Z,3.70
2017-07-25T15:01:14.839Z,4.13
2017-07-25T15:03:43.732Z,3.60
2017-07-25T15:06:12.660Z,3.97
2017-07-25T15:08:41.557Z,4.03
2017-07-25T15:11:10.478Z,3.90
2017-07-25T15:13:39.361Z,3.93
2017-07-25T15:16:08.290Z,3.10
2017-07-25T15:18:37.178Z,2.47
2017-07-25T15:21:06.108Z,3.07
2017-07-25T15:23:34.995Z,3.10
2017-07-25T15:26:03.896Z,3.23
2017-07-25T15:28:32.781Z,2.93
2017-07-25T15:31:01.668Z,2.60
2017-07-25T15:33:30.571Z,3.27
2017-07-25T15:35:59.457Z,4.30
2017-07-25T15:38:28.369Z,4.10
2017-07-25T15:40:57.253Z,4.30
2017-07-25T15:43:26.151Z,3.17
2017-07-25T15:45:55.043Z,2.87
2017-07-25T15:48:23.936Z,3.00
2017-07-25T15:50:52.828Z,3.03
2017-07-25T15:53:21.704Z,4.50
2017-07-25T15:55:50.606Z,6.13
2017-07-25T15:58:19.477Z,3.27
2017-07-25T16:00:48.384Z,5.13
2017-07-25T16:03:17.260Z,3.90
2017-07-25T16:05:46.156Z,3.60
2017-07-25T16:08:15.030Z,3.40
2017-07-25T16:10:43.927Z,2.17
2017-07-25T16:13:12.800Z,3.07
2017-07-25T16:15:41.704Z,2.90
2017-07-25T16:18:10.580Z,4.03
2017-07-25T16:20:39.466Z,4.53
2017-07-25T16:23:08.359Z,3.50
2017-07-25T16:25:37.242Z,3.57
2017-07-25T16:28:06.155Z,4.13
2017-07-25T16:30:35.030Z,2.63
2017-07-25T16:33:03.924Z,2.83
2017-07-25T16:35:32.811Z,2.93
2017-07-25T16:38:01.702Z,3.23
2017-07-25T16:40:30.588Z,2.50
2017-07-25T16:42:59.471Z,3.43
2017-07-25T16:45:28.379Z,3.00
2017-07-25T16:47:57.262Z,3.23
2017-07-25T16:50:26.171Z,3.37
2017-07-25T16:52:55.060Z,3.70
2017-07-25T16:55:23.967Z,2.90
2017-07-25T16:57:52.843Z,2.73
2017-07-25T17:00:21.738Z,2.87
2017-07-25T17:02:50.614Z,2.70
2017-07-25T17:05:19.499Z,3.60
2017-07-25T17:07:48.373Z,3.57
2017-07-25T17:10:17.241Z,4.27
2017-07-25T17:12:46.146Z,3.50
2017-07-25T17:15:15.024Z,3.10
2017-07-25T17:17:43.928Z,3.60
2017-07-25T17:20:12.812Z,3.57
2017-07-25T17:22:41.705Z,5.10
2017-07-25T17:25:10.604Z,2.80
2017-07-25T17:27:39.489Z,3.57
2017-07-25T17:30:08.376Z,3.30
2017-07-25T17:32:37.277Z,3.10
2017-07-25T17:35:06.243Z,3.73
2017-07-25T17:37:35.148Z,3.90
2017-07-25T17:40:04.031Z,3.50
2017-07-25T17:42:32.915Z,3.47
2017-07-25T17:45:01.828Z,3.90
2017-07-25T17:47:30.847Z,3.50
2017-07-25T17:49:59.754Z,3.27
2017-07-25T17:52:28.638Z,3.13
2017-07-25T17:54:57.530Z,3.20
2017-07-25T17:57:26.490Z,3.23
2017-07-25T17:59:55.386Z,3.73
2017-07-25T18:02:24.269Z,3.20
2017-07-25T18:04:53.165Z,2.80
2017-07-25T18:07:22.056Z,3.27
2017-07-25T18:09:50.996Z,3.13
2017-07-25T18:12:19.876Z,2.90
2017-07-25T18:14:48.783Z,2.73
2017-07-25T18:17:17.657Z,5.00
2017-07-25T18:19:46.545Z,3.10
2017-07-25T18:22:15.425Z,3.23
2017-07-25T18:24:44.333Z,3.40
2017-07-25T18:27:13.242Z,2.80
2017-07-25T18:29:42.119Z,3.13
2017-07-25T18:32:11.177Z,3.00
2017-07-25T18:34:40.100Z,2.80
2017-07-25T18:37:08.991Z,3.87
2017-07-25T18:39:37.868Z,2.70
2017-07-25T18:42:06.792Z,3.00
2017-07-25T18:44:35.674Z,3.10
2017-07-25T18:47:04.566Z,3.10
2017-07-25T18:49:33.445Z,3.60
2017-07-25T18:52:02.338Z,3.07
2017-07-25T18:54:31.202Z,5.20
2017-07-25T18:57:00.128Z,4.80
2017-07-25T18:59:29.009Z,4.37
2017-07-25T19:01:57.902Z,3.30
2017-07-25T19:04:26.799Z,3.43
2017-07-25T19:06:55.690Z,4.07
2017-07-25T19:09:24.580Z,4.03
2017-07-25T19:11:53.446Z,3.50
2017-07-25T19:14:22.346Z,3.50
2017-07-25T19:16:51.229Z,4.90
2017-07-25T19:19:20.162Z,4.10
2017-07-25T19:21:49.032Z,3.80
2017-07-25T19:24:17.958Z,3.57
2017-07-25T19:26:46.852Z,4.60
2017-07-25T19:29:15.771Z,4.00
2017-07-25T19:31:44.655Z,4.20
2017-07-25T19:34:13.544Z,4.50
2017-07-25T19:36:42.431Z,4.20
2017-07-25T19:39:11.349Z,4.70
2017-07-25T19:41:40.285Z,4.60
2017-07-25T19:44:09.194Z,4.03
2017-07-25T19:46:38.069Z,4.23
2017-07-25T19:49:06.977Z,4.77
2017-07-25T19:51:35.869Z,5.30
2017-07-25T19:54:04.754Z,4.43
2017-07-25T19:56:33.652Z,5.17
2017-07-25T19:59:02.543Z,5.40
2017-07-25T20:01:31.444Z,5.90
2017-07-25T20:04:00.310Z,5.00
2017-07-25T20:06:29.226Z,4.60
2017-07-25T20:08:58.102Z,4.93
2017-07-25T20:11:27.024Z,5.13
2017-07-25T20:13:55.898Z,5.90
2017-07-25T20:16:24.809Z,5.40
2017-07-25T20:18:53.715Z,5.27
2017-07-25T20:21:22.616Z,5.80
2017-07-25T20:23:51.511Z,5.90
2017-07-25T20:26:20.409Z,5.23
2017-07-25T20:28:49.284Z,8.43
2017-07-25T20:31:18.165Z,7.10
2017-07-25T20:33:47.049Z,6.70
2017-07-25T20:36:15.943Z,6.50
2017-07-25T20:38:44.844Z,7.80
2017-07-25T20:41:13.725Z,8.63
2017-07-25T20:43:42.619Z,8.40
2017-07-25T20:46:11.511Z,7.80
2017-07-25T20:48:40.434Z,6.67
2017-07-25T20:51:09.351Z,7.17
2017-07-25T20:53:38.257Z,6.87
2017-07-25T20:56:07.174Z,6.70
2017-07-25T20:58:36.065Z,7.03
2017-07-25T21:01:05.028Z,6.80
2017-07-25T21:03:33.923Z,7.10
2017-07-25T21:06:02.816Z,7.90
2017-07-25T21:08:31.712Z,7.80
2017-07-25T21:11:00.596Z,8.13
2017-07-25T21:13:29.503Z,8.40
2017-07-25T21:15:58.378Z,7.80
2017-07-25T21:18:27.270Z,8.13
2017-07-25T21:20:56.166Z,8.23
2017-07-25T21:23:25.056Z,7.20
2017-07-25T21:25:53.940Z,7.80
2017-07-25T21:28:22.822Z,8.60
2017-07-25T21:30:51.721Z,8.20
2017-07-25T21:33:20.619Z,7.73
2017-07-25T21:35:49.518Z,9.00
2017-07-25T21:38:18.404Z,9.10
2017-07-25T21:40:47.298Z,9.10
2017-07-25T21:43:16.182Z,9.23
2017-07-25T21:45:45.074Z,8.90
2017-07-25T21:48:13.964Z,10.30
2017-07-25T21:50:42.864Z,9.10
2017-07-25T21:53:11.746Z,10.07
2017-07-25T21:55:40.667Z,10.83
2017-07-25T21:58:09.553Z,8.90
2017-07-25T22:00:38.454Z,10.00
2017-07-25T22:03:13.117Z,9.27
2017-07-25T22:05:42.040Z,10.40
2017-07-25T22:08:10.934Z,10.37
2017-07-25T22:10:39.838Z,10.77
2017-07-25T22:13:08.727Z,10.17
2017-07-25T22:15:37.629Z,9.67
2017-07-25T22:18:06.502Z,9.70
2017-07-25T22:20:35.374Z,9.77
2017-07-25T22:23:04.280Z,9.70
2017-07-25T22:25:33.175Z,9.50
2017-07-25T22:28:02.074Z,11.40
2017-07-25T22:30:31.106Z,10.60
2017-07-25T22:33:00.002Z,10.10
2017-07-25T22:35:28.911Z,9.83
2017-07-25T22:37:57.835Z,9.97
2017-07-25T22:40:26.732Z,10.70
2017-07-25T22:42:55.632Z,10.50
2017-07-25T22:45:24.514Z,9.30
2017-07-25T22:47:53.426Z,11.00
2017-07-25T22:50:22.318Z,9.67
2017-07-25T22:52:51.230Z,11.00
2017-07-25T22:55:20.134Z,10.23
2017-07-25T22:57:49.030Z,10.33
2017-07-25T23:00:17.915Z,9.60
2017-07-25T23:02:46.798Z,11.07
2017-07-25T23:05:15.702Z,10.60
2017-07-25T23:07:44.594Z,10.60
2017-07-25T23:10:13.482Z,10.27
2017-07-25T23:12:42.354Z,11.50
2017-07-25T23:15:11.241Z,9.13
2017-07-25T23:17:40.119Z,9.60
2017-07-25T23:20:09.028Z,8.93
2017-07-25T23:22:37.902Z,8.43
2017-07-25T23:25:06.802Z,9.60
2017-07-25T23:27:35.700Z,10.97
2017-07-25T23:30:04.597Z,7.87
2017-07-25T23:32:33.475Z,9.33
2017-07-25T23:35:02.394Z,9.07
2017-07-25T23:37:31.282Z,9.00
2017-07-25T23:40:00.187Z,8.37
2017-07-25T23:42:29.070Z,8.23
2017-07-25T23:44:57.936Z,8.37
2017-07-25T23:47:26.853Z,7.80
2017-07-25T23:49:55.729Z,7.20
2017-07-25T23:52:24.643Z,8.40
2017-07-25T23:54:53.525Z,8.57
2017-07-25T23:57:22.417Z,7.83
2017-07-25T23:59:51.299Z,7.37
